createdAt,value
2022-08-23T00:00:28.549Z,100562.97
2022-08-23T00:03:00.331Z,100624.00
2022-08-23T00:05:33.022Z,100627.66
2022-08-23T00:08:02.212Z,100637.44
2022-08-23T00:10:33.464Z,100629.50
2022-08-23T00:13:07.810Z,100610.78
2022-08-23T00:15:39.080Z,100619.50
2022-08-23T00:18:14.184Z,100554.13
2022-08-23T00:20:45.201Z,100611.56
2022-08-23T00:23:16.777Z,100616.78
2022-08-23T00:25:56.447Z,100627.16
2022-08-23T00:28:27.045Z,100587.91
2022-08-23T00:30:55.696Z,100614.22
2022-08-23T00:33:28.210Z,100572.34
2022-08-23T00:36:01.470Z,100584.56
2022-08-23T00:38:35.089Z,100589.69
2022-08-23T00:41:04.690Z,100644.03
2022-08-23T00:43:57.839Z,100586.69
2022-08-23T00:46:57.217Z,100581.63
2022-08-23T00:49:32.063Z,100648.00
2022-08-23T00:52:06.667Z,100580.00
2022-08-23T00:54:40.883Z,100655.94
2022-08-23T00:57:13.675Z,100643.88
2022-08-23T00:59:42.410Z,100631.00
2022-08-23T01:02:11.606Z,100656.94
2022-08-23T01:04:49.493Z,100624.56
2022-08-23T01:07:25.172Z,100608.38
2022-08-23T01:09:56.031Z,100658.41
2022-08-23T01:12:39.137Z,100633.59
2022-08-23T01:15:13.184Z,100647.63
2022-08-23T01:17:50.049Z,100638.31
2022-08-23T01:20:26.886Z,100597.53
2022-08-23T01:22:59.768Z,100630.41
2022-08-23T01:25:40.395Z,100599.69
2022-08-23T01:28:09.180Z,100643.75
2022-08-23T01:30:39.522Z,100669.75
2022-08-23T01:33:15.652Z,100681.84
2022-08-23T01:35:46.560Z,100646.47
2022-08-23T01:38:16.484Z,100641.47
2022-08-23T01:40:53.448Z,100662.47
2022-08-23T01:43:23.788Z,100654.66
2022-08-23T01:45:58.731Z,100647.97
2022-08-23T01:48:32.547Z,100681.41
2022-08-23T01:51:03.015Z,100633.88
2022-08-23T01:53:33.422Z,100657.00
2022-08-23T01:56:03.947Z,100681.22
2022-08-23T01:58:37.588Z,100631.63
2022-08-23T02:01:10.343Z,100690.00
2022-08-23T02:03:39.192Z,100644.31
2022-08-23T02:06:08.584Z,100691.78
2022-08-23T02:08:56.209Z,100685.31
2022-08-23T02:11:30.053Z,100675.78
2022-08-23T02:14:02.886Z,100686.88
2022-08-23T02:16:58.105Z,100627.63
2022-08-23T02:19:35.345Z,100687.59
2022-08-23T02:22:13.149Z,100642.22
2022-08-23T02:24:43.953Z,100694.69
2022-08-23T02:27:21.099Z,100693.78
2022-08-23T02:29:54.170Z,100698.88
2022-08-23T02:32:26.990Z,100702.44
2022-08-23T02:35:05.055Z,100643.31
2022-08-23T02:37:36.041Z,100657.84
2022-08-23T02:40:06.895Z,100653.88
2022-08-23T02:42:37.532Z,100658.34
2022-08-23T02:45:08.586Z,100708.94
2022-08-23T02:47:42.662Z,100678.78
2022-08-23T02:50:28.822Z,100646.28
2022-08-23T02:53:01.794Z,100703.81
2022-08-23T02:55:30.796Z,100671.03
2022-08-23T02:58:01.400Z,100663.38
2022-08-23T03:00:31.884Z,100653.94
2022-08-23T03:03:02.912Z,100702.72
2022-08-23T03:05:31.924Z,100693.25
2022-08-23T03:08:02.208Z,100666.81
2022-08-23T03:10:35.827Z,100715.91
2022-08-23T03:13:07.021Z,100718.47
2022-08-23T03:15:40.535Z,100703.09
2022-08-23T03:18:14.556Z,100722.00
2022-08-23T03:20:43.142Z,100715.81
2022-08-23T03:23:14.077Z,100652.41
2022-08-23T03:25:44.386Z,100716.72
2022-08-23T03:28:29.025Z,100720.88
2022-08-23T03:30:59.994Z,100731.44
2022-08-23T03:33:32.532Z,100733.03
2022-08-23T03:36:02.214Z,100733.88
2022-08-23T03:38:32.288Z,100718.31
2022-08-23T03:41:02.988Z,100734.69
2022-08-23T03:43:38.971Z,100737.91
2022-08-23T03:46:23.189Z,100739.50
2022-08-23T03:49:01.404Z,100704.91
2022-08-23T03:51:39.443Z,100661.09
2022-08-23T03:54:08.221Z,100694.19
2022-08-23T03:56:40.665Z,100749.16
2022-08-23T03:59:15.296Z,100730.06
2022-08-23T04:01:45.523Z,100690.50
2022-08-23T04:04:17.918Z,100749.69
2022-08-23T04:07:09.692Z,100742.03
2022-08-23T04:09:38.911Z,100736.59
2022-08-23T04:12:17.538Z,100758.13
2022-08-23T04:14:51.813Z,100688.31
2022-08-23T04:17:24.860Z,100754.47
2022-08-23T04:19:57.587Z,100710.34
2022-08-23T04:22:26.370Z,100760.88
2022-08-23T04:24:56.231Z,100759.84
2022-08-23T04:27:28.706Z,100766.84
2022-08-23T04:29:59.098Z,100746.91
2022-08-23T04:32:29.056Z,100755.56
2022-08-23T04:34:59.948Z,100702.09
2022-08-23T04:37:29.393Z,100772.50
2022-08-23T04:40:19.028Z,100749.69
2022-08-23T04:42:51.979Z,100742.91
2022-08-23T04:45:27.392Z,100674.94
2022-08-23T04:47:56.275Z,100774.88
2022-08-23T04:50:26.953Z,100750.47
2022-08-23T04:53:17.062Z,100716.81
2022-08-23T04:55:58.565Z,100775.59
2022-08-23T04:58:30.603Z,100760.34
2022-08-23T05:01:02.671Z,100695.28
2022-08-23T05:03:33.271Z,100771.44
2022-08-23T05:06:06.666Z,100721.38
2022-08-23T05:08:42.952Z,100770.88
2022-08-23T05:11:12.679Z,100770.09
2022-08-23T05:13:48.545Z,100707.78
2022-08-23T05:16:19.215Z,100708.44
2022-08-23T05:19:02.442Z,100712.03
2022-08-23T05:21:36.238Z,100752.56
2022-08-23T05:24:06.308Z,100769.34
2022-08-23T05:26:38.740Z,100711.09
2022-08-23T05:29:09.908Z,100783.22
2022-08-23T05:31:46.995Z,100773.56
2022-08-23T05:34:22.621Z,100719.38
2022-08-23T05:36:59.102Z,100718.34
2022-08-23T05:39:38.414Z,100703.56
2022-08-23T05:42:13.330Z,100779.88
2022-08-23T05:44:48.306Z,100783.69
2022-08-23T05:47:25.075Z,100757.63
2022-08-23T05:50:19.873Z,100790.81
2022-08-23T05:52:51.065Z,100792.03
2022-08-23T05:55:27.634Z,100788.91
2022-08-23T05:58:17.674Z,100788.72
2022-08-23T06:00:50.593Z,100769.78
2022-08-23T06:03:21.691Z,100790.66
2022-08-23T06:05:51.617Z,100716.06
2022-08-23T06:08:26.682Z,100800.78
2022-08-23T06:11:02.517Z,100793.19
2022-08-23T06:13:37.767Z,100796.94
2022-08-23T06:16:15.013Z,100788.88
2022-08-23T06:18:48.966Z,100719.63
2022-08-23T06:21:40.462Z,100757.56
2022-08-23T06:24:10.504Z,100747.25
2022-08-23T06:26:50.766Z,100814.66
2022-08-23T06:29:21.873Z,100770.88
2022-08-23T06:32:03.880Z,100753.69
2022-08-23T06:34:46.738Z,100700.91
2022-08-23T06:37:42.435Z,100811.63
2022-08-23T06:40:45.371Z,100807.81
2022-08-23T06:43:39.073Z,100805.91
2022-08-23T06:46:45.702Z,100807.69
2022-08-23T06:49:30.845Z,100750.50
2022-08-23T06:52:19.303Z,100813.03
2022-08-23T06:55:13.924Z,100814.28
2022-08-23T06:58:19.691Z,100826.16
2022-08-23T07:01:45.237Z,100712.38
2022-08-23T07:04:30.432Z,100818.91
2022-08-23T07:07:24.314Z,100718.63
2022-08-23T07:10:11.986Z,100737.06
2022-08-23T07:12:45.310Z,100803.59
2022-08-23T07:15:15.705Z,100826.13
2022-08-23T07:17:46.785Z,100752.00
2022-08-23T07:20:17.511Z,100831.00
2022-08-23T07:22:50.161Z,100810.47
2022-08-23T07:25:24.147Z,100833.03
2022-08-23T07:27:59.862Z,100724.41
2022-08-23T07:33:39.060Z,100796.19
2022-08-23T07:36:19.037Z,100806.88
2022-08-23T07:38:56.053Z,100788.44
2022-08-23T07:41:40.544Z,100831.50
2022-08-23T07:44:18.140Z,100805.66
2022-08-23T07:46:58.607Z,100731.38
2022-08-23T07:49:35.410Z,100827.06
2022-08-23T07:52:06.183Z,100837.28
2022-08-23T07:54:36.878Z,100789.47
2022-08-23T07:57:41.116Z,100828.38
2022-08-23T08:00:29.310Z,100826.53
2022-08-23T08:03:10.330Z,100740.03
2022-08-23T08:06:01.334Z,100831.88
2022-08-23T08:08:33.566Z,100822.97
2022-08-23T08:11:05.969Z,100734.63
2022-08-23T08:13:38.054Z,100827.19
2022-08-23T08:16:09.906Z,100829.56
2022-08-23T08:18:44.700Z,100819.97
2022-08-23T08:21:31.946Z,100788.09
2022-08-23T08:24:06.143Z,100811.13
2022-08-23T08:26:50.681Z,100783.59
2022-08-23T08:29:25.083Z,100794.94
2022-08-23T08:32:08.870Z,100814.69
2022-08-23T08:34:45.508Z,100784.06
2022-08-23T08:37:19.229Z,100810.78
2022-08-23T08:39:50.606Z,100802.22
2022-08-23T08:42:58.554Z,100802.50
2022-08-23T08:45:39.014Z,100709.50
2022-08-23T08:48:21.360Z,100771.47
2022-08-23T08:51:00.853Z,100782.03
2022-08-23T08:53:43.870Z,100806.41
2022-08-23T08:56:25.064Z,100797.53
2022-08-23T08:59:24.741Z,100771.69
2022-08-23T09:01:54.279Z,100811.06
2022-08-23T09:04:35.071Z,100810.78
2022-08-23T09:07:25.951Z,100809.34
2022-08-23T09:10:27.721Z,100808.22
2022-08-23T09:13:22.863Z,100777.09
2022-08-23T09:16:20.957Z,100747.88
2022-08-23T09:18:58.369Z,100764.63
2022-08-23T09:21:30.888Z,100802.19
2022-08-23T09:24:02.309Z,100796.25
2022-08-23T09:26:50.107Z,100799.09
2022-08-23T09:29:28.289Z,100760.72
2022-08-23T09:32:35.999Z,100795.81
2022-08-23T09:35:14.682Z,100779.94
2022-08-23T09:38:14.807Z,100798.25
2022-08-23T09:41:15.132Z,100703.50
2022-08-23T09:43:55.175Z,100758.66
2022-08-23T09:46:39.352Z,100699.63
2022-08-23T09:53:04.830Z,100792.44
2022-08-23T09:55:41.198Z,100725.69
2022-08-23T09:58:23.357Z,100785.25
2022-08-23T10:01:19.935Z,100748.59
2022-08-23T10:04:18.333Z,100785.50
2022-08-23T10:06:51.545Z,100756.88
2022-08-23T10:09:41.373Z,100748.84
2022-08-23T10:15:43.943Z,100696.97
2022-08-23T10:18:33.207Z,100698.94
2022-08-23T10:21:24.239Z,100709.66
2022-08-23T10:24:24.171Z,100789.03
2022-08-23T10:27:26.017Z,100785.09
2022-08-23T10:33:28.074Z,100764.28
2022-08-23T10:36:43.009Z,100744.59
2022-08-23T10:39:33.821Z,100728.16
2022-08-23T10:42:21.901Z,100776.34
2022-08-23T10:44:55.902Z,100781.69
2022-08-23T10:47:42.732Z,100731.50
2022-08-23T10:50:56.405Z,100718.13
2022-08-23T10:53:36.118Z,100748.69
2022-08-23T10:56:20.290Z,100709.00
2022-08-23T10:59:01.661Z,100723.97
2022-08-23T11:01:40.341Z,100712.25
2022-08-23T11:04:26.636Z,100779.94
2022-08-23T11:07:22.733Z,100761.66
2022-08-23T11:10:34.389Z,100676.63
2022-08-23T11:13:48.540Z,100730.88
2022-08-23T11:16:27.642Z,100770.34
2022-08-23T11:19:10.322Z,100747.84
2022-08-23T11:21:54.568Z,100716.81
2022-08-23T11:24:55.941Z,100689.16
2022-08-23T11:27:40.917Z,100728.59
2022-08-23T11:30:57.841Z,100774.69
2022-08-23T11:33:43.053Z,100765.06
2022-08-23T11:36:22.110Z,100736.72
2022-08-23T11:39:30.593Z,100775.00
2022-08-23T11:42:14.816Z,100724.47
2022-08-23T11:44:58.979Z,100768.59
2022-08-23T11:47:31.936Z,100711.91
2022-08-23T11:50:15.817Z,100746.78
2022-08-23T11:53:21.874Z,100710.34
2022-08-23T11:56:24.697Z,100757.09
2022-08-23T11:59:08.644Z,100725.09
2022-08-23T12:01:42.394Z,100702.03
2022-08-23T12:04:15.419Z,100677.94
2022-08-23T12:06:57.070Z,100771.91
2022-08-23T12:10:00.631Z,100772.06
2022-08-23T12:13:10.962Z,100779.81
2022-08-23T12:16:24.928Z,100758.94
2022-08-23T12:18:59.878Z,100715.84
2022-08-23T12:21:36.920Z,100752.00
2022-08-23T12:24:30.360Z,100749.03
2022-08-23T12:27:23.128Z,100759.19
2022-08-23T12:30:03.342Z,100762.47
2022-08-23T12:32:57.002Z,100762.25
2022-08-23T12:35:38.157Z,100758.00
2022-08-23T12:38:12.572Z,100744.97
2022-08-23T12:40:58.969Z,100755.72
2022-08-23T12:43:30.953Z,100754.84
2022-08-23T12:46:03.771Z,100680.84
2022-08-23T12:48:37.043Z,100663.81
2022-08-23T12:51:17.840Z,100739.41
2022-08-23T12:53:51.391Z,100690.34
2022-08-23T12:59:50.727Z,100765.66
2022-08-23T13:02:27.022Z,100759.03
2022-08-23T13:04:59.408Z,100743.28
2022-08-23T13:07:28.596Z,100754.06
2022-08-23T13:09:59.114Z,100744.00
2022-08-23T13:12:31.511Z,100744.75
2022-08-23T13:17:49.234Z,100747.94
2022-08-23T13:20:38.805Z,100747.75
2022-08-23T13:23:17.727Z,100730.88
2022-08-23T13:26:47.735Z,100752.38
2022-08-23T13:29:30.486Z,100718.19
2022-08-23T13:32:04.233Z,100734.34
2022-08-23T13:34:45.477Z,100743.84
2022-08-23T13:37:21.386Z,100751.84
2022-08-23T13:39:54.845Z,100750.47
2022-08-23T13:42:27.262Z,100741.25
2022-08-23T13:44:58.812Z,100750.72
2022-08-23T13:47:30.385Z,100730.13
2022-08-23T13:50:12.936Z,100726.34
2022-08-23T13:53:11.587Z,100746.41
2022-08-23T13:55:44.058Z,100715.41
2022-08-23T13:58:31.866Z,100737.63
2022-08-23T14:01:08.250Z,100700.38
2022-08-23T14:03:39.901Z,100720.50
2022-08-23T14:06:09.430Z,100741.34
2022-08-23T14:08:38.121Z,100723.47
2022-08-23T14:11:17.518Z,100725.28
2022-08-23T14:13:48.182Z,100742.38
2022-08-23T14:16:40.208Z,100704.56
2022-08-23T14:19:16.455Z,100732.06
2022-08-23T14:21:47.434Z,100733.03
2022-08-23T14:24:18.335Z,100737.34
2022-08-23T14:26:50.070Z,100726.25
2022-08-23T14:29:22.545Z,100690.25
2022-08-23T14:31:53.814Z,100736.31
2022-08-23T14:34:22.971Z,100729.56
2022-08-23T14:39:42.851Z,100727.16
2022-08-23T14:42:12.134Z,100723.13
2022-08-23T14:44:41.157Z,100717.78
2022-08-23T14:47:12.169Z,100728.03
2022-08-23T14:49:42.904Z,100734.50
2022-08-23T14:52:12.803Z,100737.66
2022-08-23T14:54:41.565Z,100724.63
2022-08-23T14:57:10.573Z,100707.31
2022-08-23T14:59:39.231Z,100729.47
2022-08-23T15:02:12.627Z,100724.13
2022-08-23T15:04:42.299Z,100727.88
2022-08-23T15:07:19.942Z,100643.59
2022-08-23T15:09:54.749Z,100738.94
2022-08-23T15:15:21.717Z,100725.53
2022-08-23T15:17:54.445Z,100720.28
2022-08-23T15:20:25.645Z,100723.09
2022-08-23T15:22:55.482Z,100727.19
2022-08-23T15:25:26.173Z,100729.16
2022-08-23T15:28:14.274Z,100725.00
2022-08-23T15:30:43.482Z,100728.88
2022-08-23T15:33:14.105Z,100729.09
2022-08-23T15:35:46.883Z,100702.38
2022-08-23T15:38:17.942Z,100693.03
2022-08-23T15:40:46.937Z,100724.31
2022-08-23T15:43:15.934Z,100701.66
2022-08-23T15:45:45.096Z,100723.72
2022-08-23T15:48:18.189Z,100719.44
2022-08-23T15:50:47.932Z,100714.66
2022-08-23T15:53:17.280Z,100705.31
2022-08-23T15:55:56.669Z,100711.63
2022-08-23T15:58:27.486Z,100722.44
2022-08-23T16:00:59.933Z,100691.63
2022-08-23T16:03:31.517Z,100659.63
2022-08-23T16:06:01.290Z,100668.41
2022-08-23T16:08:32.673Z,100729.41
2022-08-23T16:11:05.168Z,100739.00
2022-08-23T16:13:34.343Z,100672.59
2022-08-23T16:16:03.445Z,100700.78
2022-08-23T16:18:34.641Z,100711.47
2022-08-23T16:21:03.740Z,100735.44
2022-08-23T16:23:32.484Z,100742.50
2022-08-23T16:26:01.698Z,100749.78
2022-08-23T16:28:31.371Z,100724.84
2022-08-23T16:31:00.302Z,100738.91
2022-08-23T16:33:31.520Z,100715.28
2022-08-23T16:36:01.683Z,100750.50
2022-08-23T16:38:31.214Z,100749.75
2022-08-23T16:41:00.033Z,100757.03
2022-08-23T16:43:28.869Z,100724.41
2022-08-23T16:45:57.551Z,100762.19
2022-08-23T16:48:26.813Z,100711.03
2022-08-23T16:50:55.902Z,100760.59
2022-08-23T16:53:27.251Z,100736.44
2022-08-23T16:55:57.701Z,100746.28
2022-08-23T16:58:26.732Z,100778.50
2022-08-23T17:00:55.697Z,100736.44
2022-08-23T17:03:27.161Z,100776.25
2022-08-23T17:05:56.202Z,100783.19
2022-08-23T17:08:28.479Z,100775.81
2022-08-23T17:11:01.128Z,100762.59
2022-08-23T17:13:31.857Z,100766.75
2022-08-23T17:16:00.612Z,100791.81
2022-08-23T17:18:29.523Z,100747.66
2022-08-23T17:20:59.820Z,100787.25
2022-08-23T17:23:30.891Z,100730.91
2022-08-23T17:25:59.717Z,100790.97
2022-08-23T17:28:31.565Z,100737.06
2022-08-23T17:31:00.492Z,100738.31
2022-08-23T17:33:29.405Z,100802.81
2022-08-23T17:35:58.362Z,100764.16
2022-08-23T17:38:28.956Z,100784.44
2022-08-23T17:40:59.220Z,100806.59
2022-08-23T17:43:43.150Z,100792.69
2022-08-23T17:46:13.111Z,100809.44
2022-08-23T17:48:42.376Z,100791.59
2022-08-23T17:51:12.749Z,100801.09
2022-08-23T17:53:41.763Z,100790.97
2022-08-23T17:56:12.467Z,100772.38
2022-08-23T17:58:41.784Z,100805.25
2022-08-23T18:01:13.073Z,100782.41
2022-08-23T18:03:42.517Z,100808.19
2022-08-23T18:06:17.067Z,100810.13
2022-08-23T18:08:46.762Z,100816.88
2022-08-23T18:11:19.186Z,100782.19
2022-08-23T18:13:51.310Z,100813.25
2022-08-23T18:16:20.065Z,100790.53
2022-08-23T18:18:48.960Z,100820.13
2022-08-23T18:21:17.802Z,100744.78
2022-08-23T18:23:48.153Z,100801.84
2022-08-23T18:26:32.041Z,100818.69
2022-08-23T18:29:03.416Z,100820.00
2022-08-23T18:31:32.690Z,100819.69
2022-08-23T18:34:03.858Z,100824.28
2022-08-23T18:36:35.415Z,100820.38
2022-08-23T18:39:04.962Z,100820.81
2022-08-23T18:41:35.219Z,100819.38
2022-08-23T18:44:05.823Z,100791.00
2022-08-23T18:46:34.913Z,100759.41
2022-08-23T18:49:04.859Z,100827.03
2022-08-23T18:51:33.802Z,100821.63
2022-08-23T18:54:02.599Z,100815.72
2022-08-23T18:56:36.402Z,100809.72
2022-08-23T18:59:27.639Z,100747.94
2022-08-23T19:01:56.891Z,100817.75
2022-08-23T19:04:25.830Z,100807.75
2022-08-23T19:07:07.412Z,100704.63
2022-08-23T19:09:37.316Z,100766.19
2022-08-23T19:12:08.375Z,100769.41
2022-08-23T19:14:42.385Z,100798.50
2022-08-23T19:17:12.989Z,100752.41
2022-08-23T19:19:43.964Z,100743.16
2022-08-23T19:22:20.985Z,100824.16
2022-08-23T19:24:51.420Z,100789.78
2022-08-23T19:27:24.740Z,100795.03
2022-08-23T19:30:09.882Z,100809.75
2022-08-23T19:33:16.193Z,100706.69
2022-08-23T19:35:53.591Z,100752.66
2022-08-23T19:38:30.404Z,100844.31
2022-08-23T19:41:25.047Z,100773.63
2022-08-23T19:43:55.639Z,100845.16
2022-08-23T19:46:24.272Z,100842.06
2022-08-23T19:48:53.181Z,100844.22
2022-08-23T19:51:24.856Z,100845.69
2022-08-23T19:54:11.040Z,100843.69
2022-08-23T19:56:42.730Z,100850.63
2022-08-23T19:59:16.727Z,100835.38
2022-08-23T20:01:45.589Z,100858.44
2022-08-23T20:04:14.521Z,100851.72
2022-08-23T20:06:43.579Z,100857.28
2022-08-23T20:09:15.746Z,100841.94
2022-08-23T20:11:44.805Z,100844.69
2022-08-23T20:14:15.147Z,100826.88
2022-08-23T20:16:44.511Z,100861.44
2022-08-23T20:19:17.434Z,100815.28
2022-08-23T20:21:46.275Z,100850.75
2022-08-23T20:24:15.250Z,100866.53
2022-08-23T20:26:47.385Z,100862.38
2022-08-23T20:29:22.435Z,100861.78
2022-08-23T20:31:53.384Z,100856.00
2022-08-23T20:34:22.660Z,100851.56
2022-08-23T20:36:56.409Z,100877.78
2022-08-23T20:39:25.624Z,100876.06
2022-08-23T20:41:55.265Z,100876.59
2022-08-23T20:44:27.321Z,100879.50
2022-08-23T20:47:02.694Z,100871.38
2022-08-23T20:49:31.992Z,100879.72
2022-08-23T20:52:00.721Z,100868.41
2022-08-23T20:54:29.456Z,100873.00
2022-08-23T20:56:58.126Z,100891.72
2022-08-23T20:59:28.267Z,100872.97
2022-08-23T21:01:56.905Z,100864.69
2022-08-23T21:04:54.204Z,100880.13
2022-08-23T21:07:23.146Z,100879.16
2022-08-23T21:09:52.540Z,100879.09
2022-08-23T21:12:21.202Z,100886.31
2022-08-23T21:14:51.576Z,100870.38
2022-08-23T21:17:20.153Z,100869.25
2022-08-23T21:19:48.834Z,100860.66
2022-08-23T21:22:17.533Z,100884.63
2022-08-23T21:24:46.164Z,100890.28
2022-08-23T21:27:14.785Z,100895.97
2022-08-23T21:29:43.650Z,100878.00
2022-08-23T21:32:13.771Z,100878.78
2022-08-23T21:34:42.445Z,100878.41
2022-08-23T21:37:11.218Z,100889.06
2022-08-23T21:39:39.962Z,100866.91
2022-08-23T21:42:14.947Z,100889.81
2022-08-23T21:44:44.252Z,100878.78
2022-08-23T21:47:14.948Z,100886.03
2022-08-23T21:49:43.672Z,100892.44
2022-08-23T21:52:12.310Z,100897.34
2022-08-23T21:54:43.565Z,100908.88
2022-08-23T21:57:13.399Z,100903.66
2022-08-23T21:59:42.032Z,100908.97
2022-08-23T22:02:10.774Z,100886.69
2022-08-23T22:04:41.188Z,100898.81
2022-08-23T22:07:09.883Z,100913.78
2022-08-23T22:09:38.721Z,100905.59
2022-08-23T22:12:08.992Z,100901.78
2022-08-23T22:17:43.658Z,100887.25
2022-08-23T22:20:14.698Z,100915.00
2022-08-23T22:22:44.823Z,100911.66
2022-08-23T22:25:14.913Z,100922.19
2022-08-23T22:27:43.569Z,100887.31
2022-08-23T22:30:13.422Z,100911.78
2022-08-23T22:32:42.532Z,100916.94
2022-08-23T22:35:12.096Z,100916.16
2022-08-23T22:37:58.307Z,100919.25
2022-08-23T22:40:31.711Z,100890.09
2022-08-23T22:43:00.319Z,100927.47
2022-08-23T22:45:29.255Z,100915.59
2022-08-23T22:47:58.099Z,100904.59
2022-08-23T22:50:27.830Z,100918.53
2022-08-23T22:52:58.672Z,100927.50
2022-08-23T22:55:27.380Z,100930.34
2022-08-23T22:57:55.980Z,100930.56
2022-08-23T23:00:36.021Z,100911.69
2022-08-23T23:03:04.768Z,100934.28
2022-08-23T23:05:34.760Z,100931.78
2022-08-23T23:08:22.387Z,100918.38
2022-08-23T23:10:51.037Z,100933.13
2022-08-23T23:13:19.725Z,100934.97
2022-08-23T23:15:48.413Z,100931.75
2022-08-23T23:18:17.105Z,100926.00
2022-08-23T23:20:45.144Z,100919.63
2022-08-23T23:23:16.667Z,100926.66
2022-08-23T23:25:46.276Z,100937.25
2022-08-23T23:28:15.941Z,100931.03
2022-08-23T23:30:45.726Z,100942.59
2022-08-23T23:33:15.060Z,100940.97
2022-08-23T23:35:43.789Z,100943.72
2022-08-23T23:38:12.782Z,100896.63
2022-08-23T23:40:43.808Z,100938.69
2022-08-23T23:43:13.537Z,100940.50
2022-08-23T23:45:42.498Z,100946.78
2022-08-23T23:48:12.235Z,100945.97
2022-08-23T23:50:45.180Z,100934.94
2022-08-23T23:53:16.436Z,100949.06
2022-08-23T23:55:48.845Z,100944.00
2022-08-23T23:58:17.512Z,100950.38
